Seiwamaru — JG5074 — position and weather

sailwx.info

Track history (hours):
 
Tides and Currents Weather Stations Pressure Air Temp Water Temp Dewpoint Dewpoint Depression Visibility Wind Speed Wind Dir Waves Ship Positions

Seiwamaru

Last reported at 2017-Dec-17 15:14 UTC. Time now 2017-Dec-17 15:58 UTC.
Position N 34°02' E 131°35'.

Length 59 m; draft 3.8 m.

Type: Tanker. MMSI: 431100283.

Date/timePositionNaut miles runAvg speedWind from/ knotsBaromVisibWave heightAir tempDewpointWater temp
2017-Dec-17 15:14N 34°02' E 131°35'0 0.0
2017-Dec-17 14:56N 34°02' E 131°35'0 0.0
2017-Dec-17 14:14N 34°02' E 131°35'0 0.0
2017-Dec-17 13:50N 34°02' E 131°35'0 0.0
2017-Dec-17 07:47N 34°02' E 131°35'0 0.0
2017-Dec-17 07:30N 34°02' E 131°35'0 0.0
2017-Dec-17 07:00N 34°02' E 131°35'0 0.0
2017-Dec-17 06:30N 34°02' E 131°35'0 0.0
2017-Dec-17 06:00N 34°02' E 131°35'0 0.0
2017-Dec-17 05:30N 34°02' E 131°35'0 0.0
2017-Dec-17 05:00N 34°02' E 131°35'0 0.0
2017-Dec-17 04:30N 34°02' E 131°35'0 0.0
2017-Dec-17 04:00N 34°02' E 131°35'0 0.0
2017-Dec-17 03:30N 34°02' E 131°35'0 0.0
2017-Dec-17 03:00N 34°02' E 131°35'0 0.0
2017-Dec-17 02:30N 34°02' E 131°35'0 0.0
2017-Dec-17 02:00N 34°02' E 131°35'3 6.4
2017-Dec-17 01:30N 34°00' E 131°38'611.4
2017-Dec-17 01:00N 33°57' E 131°44'611.4
2017-Dec-17 00:30N 33°55' E 131°50'1011.3
2017-Dec-16 23:35N 33°52' E 132°02'111.5
2017-Dec-16 23:30N 33°52' E 132°03'510.5
2017-Dec-16 22:59N 33°50' E 132°09'610.8
2017-Dec-16 22:24N 33°50' E 132°17'410.7
2017-Dec-16 21:59N 33°50' E 132°22'510.0
2017-Dec-16 21:26N 33°54' E 132°28'5 9.9
2017-Dec-16 20:56N 33°57' E 132°32'4 9.8
2017-Dec-16 20:30N 34°00' E 132°35'510.9
2017-Dec-16 20:00N 34°03' E 132°41'9310.0
2017-Dec-16 10:40N 34°18' E 134°32'311.0
2017-Dec-16 10:24N 34°17' E 134°35'610.9
2017-Dec-16 09:53N 34°13' E 134°40'611.5
2017-Dec-16 09:24N 34°08' E 134°43'410.8
2017-Dec-16 09:00N 34°05' E 134°47'910.9
2017-Dec-16 08:10N 33°58' E 134°54'210.0
2017-Dec-16 08:00N 33°57' E 134°56'510.4
2017-Dec-16 07:28N 33°53' E 135°00'16710.2
2017-Dec-15 15:05N 34°32' E 138°16'210.2
2017-Dec-15 14:54N 34°32' E 138°19'1310.7
2017-Dec-15 13:40N 34°33' E 138°34'5 9.6
2017-Dec-15 13:09N 34°33' E 138°41'2 9.8
2017-Dec-15 12:54N 34°33' E 138°43'510.1
2017-Dec-15 12:26N 34°34' E 138°49'4 9.8
2017-Dec-15 11:59N 34°35' E 138°54'4 9.3
2017-Dec-15 11:30N 34°38' E 138°59'611.1
2017-Dec-15 10:56N 34°43' E 139°04'512.3
2017-Dec-15 10:30N 34°47' E 139°07'712.3
2017-Dec-15 09:55N 34°53' E 139°12'511.9
2017-Dec-15 09:27N 34°57' E 139°17'511.4
2017-Dec-15 08:59N 34°59' E 139°23'611.1
2017-Dec-15 08:27N 35°02' E 139°29'811.2
2017-Dec-15 07:44N 35°06' E 139°38'312.2
2017-Dec-15 07:30N 35°08' E 139°41'611.8
2017-Dec-15 06:59N 35°12' E 139°46'511.4
2017-Dec-15 06:30N 35°18' E 139°44'611.9
2017-Dec-15 06:00N 35°23' E 139°42'611.1
2017-Dec-15 05:30N 35°29' E 139°41'1 1.7
2017-Dec-15 05:00N 35°29' E 139°41'0 0.0
2017-Dec-15 04:30N 35°29' E 139°41'0 0.0
2017-Dec-15 04:00N 35°29' E 139°41'0 0.0
2017-Dec-15 02:30N 35°29' E 139°41'3 1.9
2017-Dec-15 01:00N 35°28' E 139°44'1 1.3
2017-Dec-15 00:30N 35°27' E 139°44'6110.1
2017-Dec-14 18:28N 34°38' E 139°00'510.4
2017-Dec-14 18:00N 34°35' E 138°55'612.0
2017-Dec-14 17:29N 34°34' E 138°48'811.7
2017-Dec-14 16:49N 34°34' E 138°38'911.2
2017-Dec-14 16:03N 34°34' E 138°28'111.9
2017-Dec-14 16:00N 34°34' E 138°27'32910.1
2017-Dec-13 07:33N 33°18' E 132°01'310.6
2017-Dec-13 07:14N 33°20' E 131°59'211.1
2017-Dec-13 07:01N 33°22' E 131°57'611.1
2017-Dec-13 06:30N 33°27' E 131°54'611.3
2017-Dec-13 06:00N 33°32' E 131°51'611.2
2017-Dec-13 05:30N 33°37' E 131°47'711.5
2017-Dec-13 04:55N 33°43' E 131°44'511.5
2017-Dec-13 04:28N 33°48' E 131°42'711.6
2017-Dec-13 03:54N 33°54' E 131°39'511.8
2017-Dec-13 03:30N 33°59' E 131°38'4 7.4
2017-Dec-13 03:00N 34°02' E 131°35'0 0.0
2017-Dec-13 02:30N 34°02' E 131°35'0 0.0
2017-Dec-13 02:00N 34°02' E 131°35'0 0.0
2017-Dec-13 01:29N 34°02' E 131°35'0 0.0
2017-Dec-13 01:00N 34°02' E 131°35'0 0.0
2017-Dec-13 00:29N 34°02' E 131°35'0 0.0
2017-Dec-13 00:00N 34°02' E 131°35'4 8.3
2017-Dec-12 23:30N 33°59' E 131°39'611.4
2017-Dec-12 23:00N 33°57' E 131°45'611.1
2017-Dec-12 22:29N 33°55' E 131°52'811.5
2017-Dec-12 21:50N 33°53' E 132°00'411.7
2017-Dec-12 21:29N 33°51' E 132°05'811.0
2017-Dec-12 20:45N 33°50' E 132°15'411.7
2017-Dec-12 20:24N 33°50' E 132°20'611.0
2017-Dec-12 19:49N 33°53' E 132°27'610.7
2017-Dec-12 19:17N 33°57' E 132°32'3 9.9
2017-Dec-12 18:56N 33°59' E 132°35'510.9
2017-Dec-12 18:30N 34°02' E 132°39'8910.1
2017-Dec-12 09:39N 34°26' E 134°23'211.3
2017-Dec-12 09:29N 34°26' E 134°25'511.4
2017-Dec-12 09:00N 34°28' E 134°32'611.1
2017-Dec-12 08:30N 34°30' E 134°38'611.3
2017-Dec-12 08:00N 34°32' E 134°44'612.0
2017-Dec-12 07:30N 34°35' E 134°51'612.6
2017-Dec-12 07:00N 34°37' E 134°58'611.8
2017-Dec-12 06:30N 34°36' E 135°05'611.3
2017-Dec-12 06:00N 34°36' E 135°12'611.3
2017-Dec-12 05:30N 34°36' E 135°19'510.4
2017-Dec-12 05:01N 34°36' E 135°25'1 2.2
2017-Dec-12 04:30N 34°35' E 135°26'0 0.0
2017-Dec-12 04:00N 34°35' E 135°26'0 0.0
2017-Dec-12 03:30N 34°35' E 135°26'0 0.0
2017-Dec-12 03:00N 34°35' E 135°26'0 0.0
2017-Dec-12 02:30N 34°35' E 135°26'0 0.0
2017-Dec-12 02:00N 34°35' E 135°26'0 0.0
2017-Dec-12 01:30N 34°35' E 135°26'0 0.0
2017-Dec-12 01:00N 34°35' E 135°26'0 0.0
2017-Dec-12 00:31N 34°35' E 135°26'0 0.2
2017-Dec-12 00:01N 34°35' E 135°26'2 4.3
2017-Dec-11 23:30N 34°36' E 135°23'0 0.1
2017-Dec-11 23:00N 34°36' E 135°23'0 0.0
2017-Dec-11 22:30N 34°36' E 135°23'0 0.0
2017-Dec-11 22:00N 34°36' E 135°23'0 0.0
2017-Dec-11 21:30N 34°36' E 135°23'1 2.2
2017-Dec-11 21:00N 34°36' E 135°22'611.7
2017-Dec-11 20:30N 34°35' E 135°15'612.0
2017-Dec-11 20:00N 34°35' E 135°08'611.0
2017-Dec-11 19:30N 34°37' E 135°01'510.1
2017-Dec-11 19:00N 34°36' E 134°55'510.6
2017-Dec-11 18:30N 34°34' E 134°49'611.2
2017-Dec-11 18:00N 34°31' E 134°43'611.4
2017-Dec-11 17:30N 34°29' E 134°37'611.5
2017-Dec-11 17:00N 34°27' E 134°30'611.4
2017-Dec-11 16:29N 34°25' E 134°24'911.5
2017-Dec-11 15:40N 34°24' E 134°12'7710.9
2017-Dec-11 08:37N 34°04' E 132°42'112.2
2017-Dec-11 08:30N 34°03' E 132°41'611.8
2017-Dec-11 08:00N 33°59' E 132°35'711.9
2017-Dec-11 07:25N 33°55' E 132°29'812.0
2017-Dec-11 06:46N 33°50' E 132°21'312.2
2017-Dec-11 06:29N 33°50' E 132°17'1212.1
2017-Dec-11 05:31N 33°46' E 132°04'011.0
2017-Dec-11 05:30N 33°46' E 132°04'611.0
2017-Dec-11 04:56N 33°49' E 131°57'611.6
2017-Dec-11 04:25N 33°53' E 131°51'511.5
2017-Dec-11 04:00N 33°56' E 131°47'611.4
2017-Dec-11 03:30N 33°59' E 131°41'610.5
2017-Dec-11 02:58N 34°02' E 131°35'0 0.1
2017-Dec-11 02:30N 34°02' E 131°35'0 0.0
2017-Dec-11 02:00N 34°02' E 131°35'0 0.0
2017-Dec-11 01:30N 34°02' E 131°35'0 0.0
2017-Dec-11 00:56N 34°02' E 131°35'0 0.0
2017-Dec-11 00:26N 34°02' E 131°35'0 0.0
2017-Dec-10 23:25N 34°02' E 131°35'2 4.1
2017-Dec-10 23:00N 34°01' E 131°37'1 0.5
2017-Dec-10 21:00N 34°00' E 131°38'0 0.0
2017-Dec-10 20:30N 34°00' E 131°38'0 0.0
2017-Dec-10 20:00N 34°00' E 131°38'4 7.5
2017-Dec-10 19:30N 33°58' E 131°42'610.9
2017-Dec-10 19:00N 33°55' E 131°47'810.6
2017-Dec-10 18:14N 33°51' E 131°55'210.0
2017-Dec-10 18:00N 33°49' E 131°57'510.4
2017-Dec-10 17:30N 33°46' E 132°02'610.8
2017-Dec-10 16:56N 33°49' E 132°09'510.7
2017-Dec-10 16:28N 33°50' E 132°15'611.3
2017-Dec-10 15:58N 33°50' E 132°21'510.8
2017-Dec-10 15:30N 33°53' E 132°26'611.1
2017-Dec-10 14:59N 33°57' E 132°32'511.3
2017-Dec-10 14:30N 34°01' E 132°37'9610.7
2017-Dec-10 05:31N 34°19' E 134°30'013.0
2017-Dec-10 05:30N 34°18' E 134°31'612.0
2017-Dec-10 05:00N 34°16' E 134°37'912.4
2017-Dec-10 04:17N 34°09' E 134°44'412.1
2017-Dec-10 04:00N 34°07' E 134°47'712.1
2017-Dec-10 03:24N 34°01' E 134°53'511.8
2017-Dec-10 03:00N 33°58' E 134°57'16710.0
2017-Dec-09 10:14N 34°33' E 138°14'310.7
2017-Dec-09 09:59N 34°33' E 138°18'8 9.2
2017-Dec-09 09:05N 34°34' E 138°28'7 8.5
2017-Dec-09 08:18N 34°35' E 138°36'3 8.6
2017-Dec-09 07:54N 34°35' E 138°40'4 8.7
2017-Dec-09 07:27N 34°35' E 138°45'4 8.7
2017-Dec-09 07:00N 34°35' E 138°49'4 7.8
2017-Dec-09 06:30N 34°36' E 138°54'5 7.7
2017-Dec-09 05:54N 34°38' E 138°59'4 9.9
2017-Dec-09 05:30N 34°41' E 139°02'810.3
2017-Dec-09 04:46N 34°47' E 139°07'1011.6
2017-Dec-09 03:55N 34°55' E 139°14'510.8
2017-Dec-09 03:27N 34°58' E 139°19'510.2
2017-Dec-09 02:57N 35°00' E 139°25'510.8
2017-Dec-09 02:30N 35°03' E 139°30'611.6
2017-Dec-09 02:01N 35°05' E 139°36'612.0
2017-Dec-09 01:31N 35°08' E 139°43'611.7
2017-Dec-09 01:01N 35°13' E 139°46'611.7
2017-Dec-09 00:31N 35°19' E 139°43'612.0
2017-Dec-09 00:00N 35°25' E 139°43'5 9.8
2017-Dec-08 23:31N 35°29' E 139°41'0 0.0
2017-Dec-08 23:00N 35°29' E 139°41'0 0.0
2017-Dec-08 22:27N 35°29' E 139°41'0 0.0
2017-Dec-08 22:01N 35°29' E 139°41'0 0.8
2017-Dec-08 21:31N 35°29' E 139°41'3 6.8
2017-Dec-08 21:00N 35°26' E 139°44'2 4.8
2017-Dec-08 20:30N 35°24' E 139°44'0 0.0
2017-Dec-08 20:00N 35°24' E 139°44'0 0.7
2017-Dec-08 19:31N 35°24' E 139°44'611.0
2017-Dec-08 19:01N 35°18' E 139°44'510.8
2017-Dec-08 18:30N 35°13' E 139°47'510.8
2017-Dec-08 18:00N 35°08' E 139°45'510.5
2017-Dec-08 17:31N 35°04' E 139°41'510.7
2017-Dec-08 17:00N 35°01' E 139°36'611.8
2017-Dec-08 16:30N 34°57' E 139°30'811.6
2017-Dec-08 15:51N 34°52' E 139°22'510.8
2017-Dec-08 15:22N 34°49' E 139°17'3 9.8
2017-Dec-08 15:00N 34°47' E 139°14'810.0
2017-Dec-08 14:14N 34°42' E 139°07'310.5
2017-Dec-08 13:57N 34°40' E 139°04'510.9
2017-Dec-08 13:30N 34°37' E 138°60'611.5
2017-Dec-08 12:57N 34°35' E 138°52'612.7
2017-Dec-08 12:29N 34°35' E 138°45'713.3
2017-Dec-08 11:59N 34°35' E 138°37'713.4
2017-Dec-08 11:29N 34°34' E 138°29'8011.6
2017-Dec-08 04:33N 34°39' E 136°52'012.8
2017-Dec-08 04:30N 34°39' E 136°51'612.2
2017-Dec-08 04:01N 34°45' E 136°47'612.0
2017-Dec-08 03:30N 34°50' E 136°46'611.9
2017-Dec-08 03:00N 34°56' E 136°46'510.4
2017-Dec-08 02:30N 35°01' E 136°50'0 0.2
2017-Dec-08 02:01N 35°01' E 136°50'4 8.1
2017-Dec-08 01:31N 35°04' E 136°52'0 0.0
2017-Dec-08 01:01N 35°04' E 136°52'0 0.0
2017-Dec-08 00:29N 35°04' E 136°52'0 0.0
2017-Dec-07 23:59N 35°04' E 136°52'0 0.0
2017-Dec-07 23:26N 35°04' E 136°52'0 0.0
2017-Dec-07 22:56N 35°04' E 136°52'0 0.0
2017-Dec-07 22:30N 35°04' E 136°52'0 0.0
2017-Dec-07 22:00N 35°04' E 136°52'2 3.4
2017-Dec-07 21:30N 35°03' E 136°52'611.5
2017-Dec-07 21:00N 34°58' E 136°48'1 2.5
2017-Dec-07 20:30N 34°57' E 136°47'0 0.0
2017-Dec-07 20:00N 34°57' E 136°47'0 0.0
2017-Dec-07 19:30N 34°57' E 136°47'0 0.0
2017-Dec-07 19:00N 34°57' E 136°47'0 0.0
2017-Dec-07 18:30N 34°57' E 136°47'0 0.0
2017-Dec-07 18:00N 34°57' E 136°47'0 0.0
2017-Dec-07 17:30N 34°57' E 136°47'0 0.0
2017-Dec-07 17:00N 34°57' E 136°47'0 0.0
2017-Dec-07 16:30N 34°57' E 136°47'0 0.0
2017-Dec-07 16:00N 34°57' E 136°47'0 0.0
2017-Dec-07 15:30N 34°57' E 136°47'  
Track history (hours):
 
Tides and Currents Weather Stations Pressure Air Temp Water Temp Dewpoint Dewpoint Depression Visibility Wind Speed Wind Dir Waves Ship Positions

Seiwamaru

Last reported at 2017-Dec-17 15:14 UTC. Time now 2017-Dec-17 15:58 UTC.
Position N 34°02' E 131°35'.

Length 59 m; draft 3.8 m.

Type: Tanker. MMSI: 431100283.

Date/timePositionNaut miles runAvg speedWind from/ knotsBaromVisibWave heightAir tempDewpointWater temp
2017-Dec-17 15:14N 34°02' E 131°35'0 0.0
2017-Dec-17 14:56N 34°02' E 131°35'0 0.0
2017-Dec-17 14:14N 34°02' E 131°35'0 0.0
2017-Dec-17 13:50N 34°02' E 131°35'0 0.0
2017-Dec-17 07:47N 34°02' E 131°35'0 0.0
2017-Dec-17 07:30N 34°02' E 131°35'0 0.0
2017-Dec-17 07:00N 34°02' E 131°35'0 0.0
2017-Dec-17 06:30N 34°02' E 131°35'0 0.0
2017-Dec-17 06:00N 34°02' E 131°35'0 0.0
2017-Dec-17 05:30N 34°02' E 131°35'0 0.0
2017-Dec-17 05:00N 34°02' E 131°35'0 0.0
2017-Dec-17 04:30N 34°02' E 131°35'0 0.0
2017-Dec-17 04:00N 34°02' E 131°35'0 0.0
2017-Dec-17 03:30N 34°02' E 131°35'0 0.0
2017-Dec-17 03:00N 34°02' E 131°35'0 0.0
2017-Dec-17 02:30N 34°02' E 131°35'0 0.0
2017-Dec-17 02:00N 34°02' E 131°35'3 6.4
2017-Dec-17 01:30N 34°00' E 131°38'611.4
2017-Dec-17 01:00N 33°57' E 131°44'611.4
2017-Dec-17 00:30N 33°55' E 131°50'1011.3
2017-Dec-16 23:35N 33°52' E 132°02'111.5
2017-Dec-16 23:30N 33°52' E 132°03'510.5
2017-Dec-16 22:59N 33°50' E 132°09'610.8
2017-Dec-16 22:24N 33°50' E 132°17'410.7
2017-Dec-16 21:59N 33°50' E 132°22'510.0
2017-Dec-16 21:26N 33°54' E 132°28'5 9.9
2017-Dec-16 20:56N 33°57' E 132°32'4 9.8
2017-Dec-16 20:30N 34°00' E 132°35'510.9
2017-Dec-16 20:00N 34°03' E 132°41'9310.0
2017-Dec-16 10:40N 34°18' E 134°32'311.0
2017-Dec-16 10:24N 34°17' E 134°35'610.9
2017-Dec-16 09:53N 34°13' E 134°40'611.5
2017-Dec-16 09:24N 34°08' E 134°43'410.8
2017-Dec-16 09:00N 34°05' E 134°47'910.9
2017-Dec-16 08:10N 33°58' E 134°54'210.0
2017-Dec-16 08:00N 33°57' E 134°56'510.4
2017-Dec-16 07:28N 33°53' E 135°00'16710.2
2017-Dec-15 15:05N 34°32' E 138°16'210.2
2017-Dec-15 14:54N 34°32' E 138°19'1310.7
2017-Dec-15 13:40N 34°33' E 138°34'5 9.6
2017-Dec-15 13:09N 34°33' E 138°41'2 9.8
2017-Dec-15 12:54N 34°33' E 138°43'510.1
2017-Dec-15 12:26N 34°34' E 138°49'4 9.8
2017-Dec-15 11:59N 34°35' E 138°54'4 9.3
2017-Dec-15 11:30N 34°38' E 138°59'611.1
2017-Dec-15 10:56N 34°43' E 139°04'512.3
2017-Dec-15 10:30N 34°47' E 139°07'712.3
2017-Dec-15 09:55N 34°53' E 139°12'511.9
2017-Dec-15 09:27N 34°57' E 139°17'511.4
2017-Dec-15 08:59N 34°59' E 139°23'611.1
2017-Dec-15 08:27N 35°02' E 139°29'811.2
2017-Dec-15 07:44N 35°06' E 139°38'312.2
2017-Dec-15 07:30N 35°08' E 139°41'611.8
2017-Dec-15 06:59N 35°12' E 139°46'511.4
2017-Dec-15 06:30N 35°18' E 139°44'611.9
2017-Dec-15 06:00N 35°23' E 139°42'611.1
2017-Dec-15 05:30N 35°29' E 139°41'1 1.7
2017-Dec-15 05:00N 35°29' E 139°41'0 0.0
2017-Dec-15 04:30N 35°29' E 139°41'0 0.0
2017-Dec-15 04:00N 35°29' E 139°41'0 0.0
2017-Dec-15 02:30N 35°29' E 139°41'3 1.9
2017-Dec-15 01:00N 35°28' E 139°44'1 1.3
2017-Dec-15 00:30N 35°27' E 139°44'6110.1
2017-Dec-14 18:28N 34°38' E 139°00'510.4
2017-Dec-14 18:00N 34°35' E 138°55'612.0
2017-Dec-14 17:29N 34°34' E 138°48'811.7
2017-Dec-14 16:49N 34°34' E 138°38'911.2
2017-Dec-14 16:03N 34°34' E 138°28'111.9
2017-Dec-14 16:00N 34°34' E 138°27'32910.1
2017-Dec-13 07:33N 33°18' E 132°01'310.6
2017-Dec-13 07:14N 33°20' E 131°59'211.1
2017-Dec-13 07:01N 33°22' E 131°57'611.1
2017-Dec-13 06:30N 33°27' E 131°54'611.3
2017-Dec-13 06:00N 33°32' E 131°51'611.2
2017-Dec-13 05:30N 33°37' E 131°47'711.5
2017-Dec-13 04:55N 33°43' E 131°44'511.5
2017-Dec-13 04:28N 33°48' E 131°42'711.6
2017-Dec-13 03:54N 33°54' E 131°39'511.8
2017-Dec-13 03:30N 33°59' E 131°38'4 7.4
2017-Dec-13 03:00N 34°02' E 131°35'0 0.0
2017-Dec-13 02:30N 34°02' E 131°35'0 0.0
2017-Dec-13 02:00N 34°02' E 131°35'0 0.0
2017-Dec-13 01:29N 34°02' E 131°35'0 0.0
2017-Dec-13 01:00N 34°02' E 131°35'0 0.0
2017-Dec-13 00:29N 34°02' E 131°35'0 0.0
2017-Dec-13 00:00N 34°02' E 131°35'4 8.3
2017-Dec-12 23:30N 33°59' E 131°39'611.4
2017-Dec-12 23:00N 33°57' E 131°45'611.1
2017-Dec-12 22:29N 33°55' E 131°52'811.5
2017-Dec-12 21:50N 33°53' E 132°00'411.7
2017-Dec-12 21:29N 33°51' E 132°05'811.0
2017-Dec-12 20:45N 33°50' E 132°15'411.7
2017-Dec-12 20:24N 33°50' E 132°20'611.0
2017-Dec-12 19:49N 33°53' E 132°27'610.7
2017-Dec-12 19:17N 33°57' E 132°32'3 9.9
2017-Dec-12 18:56N 33°59' E 132°35'510.9
2017-Dec-12 18:30N 34°02' E 132°39'8910.1
2017-Dec-12 09:39N 34°26' E 134°23'211.3
2017-Dec-12 09:29N 34°26' E 134°25'511.4
2017-Dec-12 09:00N 34°28' E 134°32'611.1
2017-Dec-12 08:30N 34°30' E 134°38'611.3
2017-Dec-12 08:00N 34°32' E 134°44'612.0
2017-Dec-12 07:30N 34°35' E 134°51'612.6
2017-Dec-12 07:00N 34°37' E 134°58'611.8
2017-Dec-12 06:30N 34°36' E 135°05'611.3
2017-Dec-12 06:00N 34°36' E 135°12'611.3
2017-Dec-12 05:30N 34°36' E 135°19'510.4
2017-Dec-12 05:01N 34°36' E 135°25'1 2.2
2017-Dec-12 04:30N 34°35' E 135°26'0 0.0
2017-Dec-12 04:00N 34°35' E 135°26'0 0.0
2017-Dec-12 03:30N 34°35' E 135°26'0 0.0
2017-Dec-12 03:00N 34°35' E 135°26'0 0.0
2017-Dec-12 02:30N 34°35' E 135°26'0 0.0
2017-Dec-12 02:00N 34°35' E 135°26'0 0.0
2017-Dec-12 01:30N 34°35' E 135°26'0 0.0
2017-Dec-12 01:00N 34°35' E 135°26'0 0.0
2017-Dec-12 00:31N 34°35' E 135°26'0 0.2
2017-Dec-12 00:01N 34°35' E 135°26'2 4.3
2017-Dec-11 23:30N 34°36' E 135°23'0 0.1
2017-Dec-11 23:00N 34°36' E 135°23'0 0.0
2017-Dec-11 22:30N 34°36' E 135°23'0 0.0
2017-Dec-11 22:00N 34°36' E 135°23'0 0.0
2017-Dec-11 21:30N 34°36' E 135°23'1 2.2
2017-Dec-11 21:00N 34°36' E 135°22'611.7
2017-Dec-11 20:30N 34°35' E 135°15'612.0
2017-Dec-11 20:00N 34°35' E 135°08'611.0
2017-Dec-11 19:30N 34°37' E 135°01'510.1
2017-Dec-11 19:00N 34°36' E 134°55'510.6
2017-Dec-11 18:30N 34°34' E 134°49'611.2
2017-Dec-11 18:00N 34°31' E 134°43'611.4
2017-Dec-11 17:30N 34°29' E 134°37'611.5
2017-Dec-11 17:00N 34°27' E 134°30'611.4
2017-Dec-11 16:29N 34°25' E 134°24'911.5
2017-Dec-11 15:40N 34°24' E 134°12'7710.9
2017-Dec-11 08:37N 34°04' E 132°42'112.2
2017-Dec-11 08:30N 34°03' E 132°41'611.8
2017-Dec-11 08:00N 33°59' E 132°35'711.9
2017-Dec-11 07:25N 33°55' E 132°29'812.0
2017-Dec-11 06:46N 33°50' E 132°21'312.2
2017-Dec-11 06:29N 33°50' E 132°17'1212.1
2017-Dec-11 05:31N 33°46' E 132°04'011.0
2017-Dec-11 05:30N 33°46' E 132°04'611.0
2017-Dec-11 04:56N 33°49' E 131°57'611.6
2017-Dec-11 04:25N 33°53' E 131°51'511.5
2017-Dec-11 04:00N 33°56' E 131°47'611.4
2017-Dec-11 03:30N 33°59' E 131°41'610.5
2017-Dec-11 02:58N 34°02' E 131°35'0 0.1
2017-Dec-11 02:30N 34°02' E 131°35'0 0.0
2017-Dec-11 02:00N 34°02' E 131°35'0 0.0
2017-Dec-11 01:30N 34°02' E 131°35'0 0.0
2017-Dec-11 00:56N 34°02' E 131°35'0 0.0
2017-Dec-11 00:26N 34°02' E 131°35'0 0.0
2017-Dec-10 23:25N 34°02' E 131°35'2 4.1
2017-Dec-10 23:00N 34°01' E 131°37'1 0.5
2017-Dec-10 21:00N 34°00' E 131°38'0 0.0
2017-Dec-10 20:30N 34°00' E 131°38'0 0.0
2017-Dec-10 20:00N 34°00' E 131°38'4 7.5
2017-Dec-10 19:30N 33°58' E 131°42'610.9
2017-Dec-10 19:00N 33°55' E 131°47'810.6
2017-Dec-10 18:14N 33°51' E 131°55'210.0
2017-Dec-10 18:00N 33°49' E 131°57'510.4
2017-Dec-10 17:30N 33°46' E 132°02'610.8
2017-Dec-10 16:56N 33°49' E 132°09'510.7
2017-Dec-10 16:28N 33°50' E 132°15'611.3
2017-Dec-10 15:58N 33°50' E 132°21'510.8
2017-Dec-10 15:30N 33°53' E 132°26'611.1
2017-Dec-10 14:59N 33°57' E 132°32'511.3
2017-Dec-10 14:30N 34°01' E 132°37'9610.7
2017-Dec-10 05:31N 34°19' E 134°30'013.0
2017-Dec-10 05:30N 34°18' E 134°31'612.0
2017-Dec-10 05:00N 34°16' E 134°37'912.4
2017-Dec-10 04:17N 34°09' E 134°44'412.1
2017-Dec-10 04:00N 34°07' E 134°47'712.1
2017-Dec-10 03:24N 34°01' E 134°53'511.8
2017-Dec-10 03:00N 33°58' E 134°57'16710.0
2017-Dec-09 10:14N 34°33' E 138°14'310.7
2017-Dec-09 09:59N 34°33' E 138°18'8 9.2
2017-Dec-09 09:05N 34°34' E 138°28'7 8.5
2017-Dec-09 08:18N 34°35' E 138°36'3 8.6
2017-Dec-09 07:54N 34°35' E 138°40'4 8.7
2017-Dec-09 07:27N 34°35' E 138°45'4 8.7
2017-Dec-09 07:00N 34°35' E 138°49'4 7.8
2017-Dec-09 06:30N 34°36' E 138°54'5 7.7
2017-Dec-09 05:54N 34°38' E 138°59'4 9.9
2017-Dec-09 05:30N 34°41' E 139°02'810.3
2017-Dec-09 04:46N 34°47' E 139°07'1011.6
2017-Dec-09 03:55N 34°55' E 139°14'510.8
2017-Dec-09 03:27N 34°58' E 139°19'510.2
2017-Dec-09 02:57N 35°00' E 139°25'510.8
2017-Dec-09 02:30N 35°03' E 139°30'611.6
2017-Dec-09 02:01N 35°05' E 139°36'612.0
2017-Dec-09 01:31N 35°08' E 139°43'611.7
2017-Dec-09 01:01N 35°13' E 139°46'611.7
2017-Dec-09 00:31N 35°19' E 139°43'612.0
2017-Dec-09 00:00N 35°25' E 139°43'5 9.8
2017-Dec-08 23:31N 35°29' E 139°41'0 0.0
2017-Dec-08 23:00N 35°29' E 139°41'0 0.0
2017-Dec-08 22:27N 35°29' E 139°41'0 0.0
2017-Dec-08 22:01N 35°29' E 139°41'0 0.8
2017-Dec-08 21:31N 35°29' E 139°41'3 6.8
2017-Dec-08 21:00N 35°26' E 139°44'2 4.8
2017-Dec-08 20:30N 35°24' E 139°44'0 0.0
2017-Dec-08 20:00N 35°24' E 139°44'0 0.7
2017-Dec-08 19:31N 35°24' E 139°44'611.0
2017-Dec-08 19:01N 35°18' E 139°44'510.8
2017-Dec-08 18:30N 35°13' E 139°47'510.8
2017-Dec-08 18:00N 35°08' E 139°45'510.5
2017-Dec-08 17:31N 35°04' E 139°41'510.7
2017-Dec-08 17:00N 35°01' E 139°36'611.8
2017-Dec-08 16:30N 34°57' E 139°30'811.6
2017-Dec-08 15:51N 34°52' E 139°22'510.8
2017-Dec-08 15:22N 34°49' E 139°17'3 9.8
2017-Dec-08 15:00N 34°47' E 139°14'810.0
2017-Dec-08 14:14N 34°42' E 139°07'310.5
2017-Dec-08 13:57N 34°40' E 139°04'510.9
2017-Dec-08 13:30N 34°37' E 138°60'611.5
2017-Dec-08 12:57N 34°35' E 138°52'612.7
2017-Dec-08 12:29N 34°35' E 138°45'713.3
2017-Dec-08 11:59N 34°35' E 138°37'713.4
2017-Dec-08 11:29N 34°34' E 138°29'8011.6
2017-Dec-08 04:33N 34°39' E 136°52'012.8
2017-Dec-08 04:30N 34°39' E 136°51'612.2
2017-Dec-08 04:01N 34°45' E 136°47'612.0
2017-Dec-08 03:30N 34°50' E 136°46'611.9
2017-Dec-08 03:00N 34°56' E 136°46'510.4
2017-Dec-08 02:30N 35°01' E 136°50'0 0.2
2017-Dec-08 02:01N 35°01' E 136°50'4 8.1
2017-Dec-08 01:31N 35°04' E 136°52'0 0.0
2017-Dec-08 01:01N 35°04' E 136°52'0 0.0
2017-Dec-08 00:29N 35°04' E 136°52'0 0.0
2017-Dec-07 23:59N 35°04' E 136°52'0 0.0
2017-Dec-07 23:26N 35°04' E 136°52'0 0.0
2017-Dec-07 22:56N 35°04' E 136°52'0 0.0
2017-Dec-07 22:30N 35°04' E 136°52'0 0.0
2017-Dec-07 22:00N 35°04' E 136°52'2 3.4
2017-Dec-07 21:30N 35°03' E 136°52'611.5
2017-Dec-07 21:00N 34°58' E 136°48'1 2.5
2017-Dec-07 20:30N 34°57' E 136°47'0 0.0
2017-Dec-07 20:00N 34°57' E 136°47'0 0.0
2017-Dec-07 19:30N 34°57' E 136°47'0 0.0
2017-Dec-07 19:00N 34°57' E 136°47'0 0.0
2017-Dec-07 18:30N 34°57' E 136°47'0 0.0
2017-Dec-07 18:00N 34°57' E 136°47'0 0.0
2017-Dec-07 17:30N 34°57' E 136°47'0 0.0
2017-Dec-07 17:00N 34°57' E 136°47'0 0.0
2017-Dec-07 16:30N 34°57' E 136°47'0 0.0
2017-Dec-07 16:00N 34°57' E 136°47'0 0.0
2017-Dec-07 15:30N 34°57' E 136°47'  

Dump ship's entire track history